Home > Products > Valid Products > TAF

000
FTUS44 KMEG 232300
TAFMKL
TAF
KMKL 232320Z 2400/2424 VRB03KT P6SM FEW250
     FM241400 15005KT P6SM FEW040=



000
FTUS44 KMEG 232300
TAFJBR
TAF
KJBR 232320Z 2400/2424 05003KT P6SM SKC
     FM241400 12006KT P6SM FEW040=



000
FTUS44 KMEG 232300
TAFMEM
TAF
KMEM 232320Z 2400/2424 06008KT P6SM FEW250
     FM240200 06005KT P6SM FEW250
     FM240900 10004KT P6SM SKC
     FM241400 12007KT P6SM FEW040=



000
FTUS44 KMEG 232300
TAFTUP
TAF
KTUP 232320Z 2400/2424 05003KT P6SM SKC
     FM241400 12006KT P6SM FEW040=



000
FTUS44 KMEG 231700
TAFMEM
TAF
KMEM 231720Z 2318/2418 04007KT P6SM SKC
     FM240000 06006KT P6SM FEW250
     FM240700 12004KT P6SM SKC=



000
FTUS44 KMEG 231700
TAFJBR
TAF
KJBR 231720Z 2318/2418 07008KT P6SM SKC
     FM240000 05003KT P6SM SKC
     FM241400 12004KT P6SM SKC=



000
FTUS44 KMEG 231700
TAFTUP
TAF
KTUP 231720Z 2318/2418 06007KT P6SM SKC
     FM240000 05003KT P6SM SKC
     FM241400 12006KT P6SM SKC=



000
FTUS44 KMEG 231700
TAFMKL
TAF
KMKL 231720Z 2318/2418 05006KT P6SM SKC
     FM240000 00000KT P6SM FEW250
     FM241400 15004KT P6SM SKC=



000
FTUS44 KMEG 231400 AAA
TAFMEM
TAF AMD
KMEM 231450Z 2315/2412 06007KT P6SM SKC
     FM240000 06006KT P6SM FEW250
     FM240700 11004KT P6SM SKC=



000
FTUS44 KMEG 231100
TAFJBR
TAF
KJBR 231136Z 2312/2412 03003KT P6SM SKC
     FM231500 07008KT P6SM SKC
     FM240000 05003KT P6SM SKC=



000
FTUS44 KMEG 231100
TAFTUP
TAF
KTUP 231136Z 2312/2412 03004KT P6SM SKC
     FM231400 06007KT P6SM SKC
     FM240000 05003KT P6SM SKC=



000
FTUS44 KMEG 231100
TAFMEM
TAF
KMEM 231136Z 2312/2412 06007KT P6SM SKC
     FM240000 06006KT P6SM FEW250
     FM240700 11004KT P6SM SKC=



000
FTUS44 KMEG 231100
TAFMKL
TAF
KMKL 231136Z 2312/2412 00000KT P6SM SKC
     FM231600 05006KT P6SM SKC
     FM240000 00000KT P6SM FEW250=



000
FTUS44 KMEG 230800 AAA
TAFMEM
TAF AMD
KMEM 230859Z 2309/2406 06006KT P6SM SKC
     FM231400 06010KT P6SM SKC
     FM240000 06006KT P6SM SKC=



000
FTUS44 KMEG 230500
TAFMKL
TAF
KMKL 230521Z 2306/2406 00000KT P6SM SKC
      TEMPO 2309/2313 3SM BR
     FM231400 05008KT P6SM SKC
     FM240000 00000KT P6SM SKC=



000
FTUS44 KMEG 230500
TAFMEM
TAF
KMEM 230521Z 2306/2406 05006KT P6SM SKC
     FM231400 06010KT P6SM SKC
     FM240000 06006KT P6SM SKC=



000
FTUS44 KMEG 230500
TAFJBR
TAF
KJBR 230521Z 2306/2406 03003KT P6SM SKC
     FM231400 07008KT P6SM SKC
     FM240000 05003KT P6SM SKC=



000
FTUS44 KMEG 230500
TAFTUP
TAF
KTUP 230521Z 2306/2406 03004KT P6SM SKC
     FM231400 06008KT P6SM SKC
     FM240000 05003KT P6SM SKC=



000
FTUS44 KMEG 230200 AAA
TAFMEM
TAF AMD
KMEM 230259Z 2303/2324 05005KT P6SM SKC
     FM231400 06010KT P6SM SKC=



000
FTUS44 KMEG 222300
TAFJBR
TAF
KJBR 222334Z 2300/2324 03003KT P6SM SKC
     FM231400 06008KT P6SM SKC=



000
FTUS44 KMEG 222300
TAFTUP
TAF
KTUP 222334Z 2300/2324 03004KT P6SM SKC
     FM231400 06008KT P6SM SKC=



000
FTUS44 KMEG 222300
TAFMEM
TAF
KMEM 222334Z 2300/2324 05004KT P6SM SKC
     FM231400 06010KT P6SM SKC=



000
FTUS44 KMEG 222300
TAFMKL
TAF
KMKL 222334Z 2300/2324 00000KT P6SM SKC
      TEMPO 2309/2313 3SM BR
     FM231400 06008KT P6SM SKC=



000
FTUS44 KMEG 222000 AAA
TAFMEM
TAF AMD
KMEM 222046Z 2221/2318 03010KT P6SM FEW040
     FM230000 05004KT P6SM SKC
     FM231400 06010KT P6SM SKC=



000
FTUS44 KMEG 221900 AAA
TAFMKL
TAF AMD
KMKL 221918Z 2219/2318 02011G17KT P6SM FEW040
     FM230000 00000KT P6SM SKC
      TEMPO 2309/2313 3SM BR SCT004
     FM231400 06008KT P6SM SKC=



000
FTUS44 KMEG 221900 AAA
TAFTUP
TAF AMD
KTUP 221917Z 2219/2318 04012G17KT P6SM FEW040
     FM230000 03004KT P6SM SKC
     FM231400 06008KT P6SM SKC=



000
FTUS44 KMEG 221700
TAFMEM
TAF
KMEM 221725Z 2218/2318 03011G17KT P6SM FEW040
     FM230000 05004KT P6SM SKC
     FM231400 06010KT P6SM SKC=



000
FTUS44 KMEG 221700
TAFTUP
TAF
KTUP 221725Z 2218/2318 04011KT P6SM FEW040
     FM230000 03004KT P6SM SKC
     FM231400 06008KT P6SM SKC=



000
FTUS44 KMEG 221700
TAFJBR
TAF
KJBR 221725Z 2218/2318 04011G18KT P6SM FEW040
     FM230000 03003KT P6SM SKC
     FM231400 06008KT P6SM SKC=



000
FTUS44 KMEG 221700
TAFMKL
TAF
KMKL 221725Z 2218/2318 02011KT P6SM FEW040
     FM230000 00000KT P6SM SKC
      TEMPO 2309/2313 3SM BR SCT004
     FM231400 06008KT P6SM SKC=



000
FTUS44 KMEG 221400 AAA
TAFMEM
TAF AMD
KMEM 221455Z 2215/2312 03011KT P6SM SKC
     FM230000 05004KT P6SM SKC=



000
FTUS44 KMEG 221100
TAFMEM
TAF
KMEM 221120Z 2212/2312 04006KT P6SM SKC
     FM221400 03011KT P6SM SKC
     FM230000 05004KT P6SM SKC=



000
FTUS44 KMEG 221100
TAFTUP
TAF
KTUP 221120Z 2212/2312 03007KT P6SM SKC
     FM221400 04010KT P6SM SKC
     FM230000 03004KT P6SM SKC=



000
FTUS44 KMEG 221100
TAFJBR
TAF
KJBR 221120Z 2212/2312 02008KT P6SM SKC
     FM221400 04010KT P6SM SKC
     FM230000 03003KT P6SM SKC=



000
FTUS44 KMEG 221100
TAFMKL
TAF
KMKL 221120Z 2212/2312 02005KT P6SM SKC
     FM221400 02010KT P6SM SKC
     FM230000 00000KT P6SM SKC=



000
FTUS44 KMEG 220900 AAA
TAFMEM
TAF AMD
KMEM 220900Z 2209/2306 03009KT P6SM SKC
     FM221400 03011KT P6SM SKC
     FM230000 05005KT P6SM SKC=



000
FTUS44 KMEG 220500
TAFMKL
TAF
KMKL 220520Z 2206/2306 02006KT P6SM SKC
     FM221400 02009KT P6SM SKC
     FM230000 00000KT P6SM SKC=



000
FTUS44 KMEG 220500
TAFJBR
TAF
KJBR 220520Z 2206/2306 36004KT P6SM SKC
     FM221400 04009KT P6SM SKC
     FM230000 03003KT P6SM SKC=



000
FTUS44 KMEG 220500
TAFTUP
TAF
KTUP 220520Z 2206/2306 03008KT P6SM SKC
     FM221400 04010KT P6SM SKC
     FM230000 04005KT P6SM SKC=



000
FTUS44 KMEG 220500
TAFMEM
TAF
KMEM 220520Z 2206/2306 02007KT P6SM SKC
     FM221400 03011KT P6SM SKC
     FM230000 05005KT P6SM SKC=



000
FTUS44 KMEG 220200 AAA
TAFMEM
TAF AMD
KMEM 220259Z 2203/2224 01006KT P6SM SKC
     FM221400 04011KT P6SM SKC=



000
FTUS44 KMEG 220000 AAA
TAFTUP
TAF AMD
KTUP 220040Z 2201/2224 32006KT P6SM VCTS BKN060CB
     FM220200 01006KT P6SM SKC
     FM221400 04010KT P6SM SKC=



000
FTUS44 KMEG 212300
TAFMEM
TAF
KMEM 212333Z 2200/2224 36008KT P6SM SKC
     FM220500 02006KT P6SM SKC
     FM221400 04011KT P6SM SKC=



000
FTUS44 KMEG 212300
TAFTUP
TAF
KTUP 212333Z 2200/2224 32006KT P6SM VCSH SCT040 BKN080
     FM220100 01006KT P6SM SKC
     FM221400 04010KT P6SM SKC=



000
FTUS44 KMEG 212300
TAFJBR
TAF
KJBR 212333Z 2200/2224 36007KT P6SM SKC
     FM221400 04009KT P6SM SKC=



000
FTUS44 KMEG 212300
TAFMKL
TAF
KMKL 212333Z 2200/2224 34009KT P6SM SKC
     FM220200 36005KT P6SM SKC
     FM221400 02009KT P6SM SKC=



000
FTUS44 KMEG 212000 AAC
TAFMEM
TAF AMD
KMEM 212050Z 2121/2218 33012G16KT P6SM SCT040 BKN080
     FM220000 36008KT P6SM SKC
     FM220500 02006KT P6SM SKC
     FM221400 04011KT P6SM SKC=



000
FTUS44 KMEG 212000 AAB
TAFMEM
TAF AMD
KMEM 212002Z 2120/2218 32012G16KT P6SM SCT040 BKN080
     FM220000 36008KT P6SM SKC
     FM220500 02006KT P6SM SKC
     FM221400 04011KT P6SM SKC=



000
FTUS44 KMEG 212000 AAB
TAFMKL
TAF AMD
KMKL 212000Z 2120/2218 31012KT P6SM SCT040
     FM212300 34009KT P6SM SKC
     FM220200 36005KT P6SM SKC
     FM221400 02009KT P6SM SKC=



000
FTUS44 KMEG 211800 AAA
TAFMEM
TAF AMD
KMEM 211805Z 2118/2218 32012G18KT P6SM VCTS BKN040CB
     FM220000 36008KT P6SM SKC
     FM220500 02006KT P6SM SKC
     FM221400 04011KT P6SM SKC=



000
FTUS44 KMEG 211800 AAA
TAFMKL
TAF AMD
KMKL 211805Z 2118/2218 31012G18KT P6SM VCTS BKN040CB
     FM212300 34009KT P6SM SKC
     FM220200 36005KT P6SM SKC
     FM221400 02009KT P6SM SKC=



000
FTUS44 KMEG 211700
TAFMEM
TAF
KMEM 211729Z 2118/2218 28009KT P6SM SCT035 BKN050
     FM212000 32012KT P6SM VCTS BKN040CB
     FM220000 36008KT P6SM SKC
     FM220500 02006KT P6SM SKC
     FM221400 04011KT P6SM SKC=



000
FTUS44 KMEG 211700
TAFMKL
TAF
KMKL 211729Z 2118/2218 30012KT P6SM SCT035 BKN050
     FM212000 31012G18KT P6SM VCTS BKN040CB
     FM212300 34009KT P6SM SKC
     FM220200 36005KT P6SM SKC
     FM221400 02009KT P6SM SKC=



000
FTUS44 KMEG 211700
TAFTUP
TAF
KTUP 211729Z 2118/2218 29009KT P6SM SCT040
     FM212000 32010KT P6SM VCTS BKN040CB BKN150
     FM220200 01006KT P6SM SKC
     FM221400 04010KT P6SM SKC=



000
FTUS44 KMEG 211700
TAFJBR
TAF
KJBR 211729Z 2118/2218 33011G18KT P6SM SCT040 BKN080
     FM212000 34012G18KT P6SM SCT040
     FM220000 36007KT P6SM SKC
     FM221400 04009KT P6SM SKC=



000
FTUS44 KMEG 211400 AAA
TAFMEM
TAF AMD
KMEM 211459Z 2115/2212 28008KT P6SM SCT040 BKN250
     FM211800 32011G18KT P6SM VCTS BKN040CB BKN250
     FM220000 36008KT P6SM SKC
     FM220500 02006KT P6SM SKC=



000
FTUS44 KMEG 211100
TAFMKL
TAF
KMKL 211120Z 2112/2212 23005KT P6SM SCT250
     FM211500 26008KT P6SM VCSH SCT040 BKN250
     FM211800 32010G18KT P6SM VCTS BKN040CB BKN250
     FM220100 36003KT P6SM SKC=



000
FTUS44 KMEG 211100
TAFMEM
TAF
KMEM 211120Z 2112/2212 21006KT P6SM SCT250
     FM211500 28008KT P6SM VCSH SCT040 BKN250
     FM211800 32011G20KT P6SM VCTS BKN040CB BKN250
     FM220000 02005KT P6SM SKC=



000
FTUS44 KMEG 211100
TAFJBR
TAF
KJBR 211120Z 2112/2212 27004KT P6SM SCT250
     FM211300 30008KT P6SM VCSH BKN045 BKN250
     FM211800 34011G18KT P6SM SCT040 BKN250
     FM220000 01004KT P6SM SKC=



000
FTUS44 KMEG 211100
TAFTUP
TAF
KTUP 211120Z 2112/2212 00000KT P6SM SCT250
     FM211500 25006KT P6SM SCT040 SCT250
     FM212100 32010G18KT P6SM VCTS BKN050CB BKN250
     FM220100 02004KT P6SM SCT040=



000
FTUS44 KMEG 211000 AAA
TAFMKL
TAF AMD
KMKL 211003Z 2110/2206 21005KT P6SM SKC
      TEMPO 2110/2112 5SM BR
     FM211500 26008KT P6SM VCSH SCT040 BKN250
     FM212000 32010KT P6SM SCT050 BKN250
     FM220100 01004KT P6SM SKC=



000
FTUS44 KMEG 211000 AAB
TAFTUP
TAF AMD
KTUP 211003Z 2110/2206 00000KT P6SM SKC
      TEMPO 2110/2112 4SM BR
     FM211500 25006KT P6SM SCT040
     FM212100 30008KT P6SM VCTS SCT050CB BKN250
     FM220100 01005KT P6SM SCT040=



000
FTUS44 KMEG 210900 AAA
TAFTUP
TAF AMD
KTUP 210900Z 2109/2206 00000KT P6SM SKC
      TEMPO 2109/2112 1SM BR
     FM211500 25006KT P6SM SCT040
     FM212100 30008KT P6SM VCTS SCT050CB BKN250
     FM220100 01005KT P6SM SCT040=



000
FTUS44 KMEG 210800 AAA
TAFMEM
TAF AMD
KMEM 210859Z 2109/2206 21006KT P6SM SCT250
     FM211500 27008KT P6SM VCSH SCT040 BKN250
     FM212000 32010KT P6SM SCT050 BKN250
     FM220100 02006KT P6SM SKC=



000
FTUS44 KMEG 210500
TAFMEM
TAF
KMEM 210520Z 2106/2206 19006KT P6SM SCT250
     FM211500 27008KT P6SM VCSH SCT040 BKN250
     FM212000 32010KT P6SM SCT050 BKN250
     FM220100 02006KT P6SM SKC=



000
FTUS44 KMEG 210500
TAFJBR
TAF
KJBR 210520Z 2106/2206 23003KT P6SM SKC
     FM211300 28008KT P6SM VCSH SCT030 BKN250
     FM211800 34010KT P6SM SCT040 BKN250
     FM220000 01005KT P6SM SKC=



000
FTUS44 KMEG 210500
TAFMKL
TAF
KMKL 210520Z 2106/2206 19004KT P6SM SKC
      TEMPO 2108/2112 3SM BR
     FM211500 26008KT P6SM VCSH SCT040 BKN250
     FM212000 32010KT P6SM SCT050 BKN250
     FM220100 01004KT P6SM SKC=



000
FTUS44 KMEG 210500
TAFTUP
TAF
KTUP 210520Z 2106/2206 00000KT P6SM SKC
     FM211500 25006KT P6SM SCT040
     FM212100 30008KT P6SM VCTS SCT050CB BKN250
     FM220100 01005KT P6SM SCT040=



000
FTUS44 KMEG 210200 AAA
TAFMEM
TAF AMD
KMEM 210258Z 2103/2124 20005KT P6SM SCT250
     FM211400 26007KT P6SM SCT030
     FM212000 32010KT P6SM SCT040 BKN250=



    US Dept of Commerce
    National Oceanic and Atmospheric Administration
    National Weather Service
    1325 East West Highway
    Silver Spring, MD 20910
    Page Author: NWS Internet Services Team
Disclaimer
Information Quality
Credits
Glossary
Privacy Policy
Freedom of Information Act (FOIA)
About Us
Career Opportunities